Sardinia Vera — IBWV — position and weather

sailwx.info

Track history (hours):
 
Tides and Currents Weather Stations Pressure Air Temp Water Temp Dewpoint Dewpoint Depression Visibility Wind Speed Wind Dir Waves Ship Positions

Sardinia Vera

Last reported at 2015-Jan-27 05:33 UTC. Time now 2015-Jan-27 05:49 UTC.
Position N 43°33' E 010°18'.

; draft 5.2 m.

Type: Passenger vessel. MMSI: 247392000.

Date/timePositionNaut miles runAvg speedWind from/ knotsBaromVisibWave heightAir tempDewpointWater temp
2015-Jan-27 05:33N 43°33' E 010°18'0 0.0
2015-Jan-27 04:34N 43°33' E 010°18'0 0.0
2015-Jan-27 03:34N 43°33' E 010°18'0 0.0
2015-Jan-27 02:34N 43°33' E 010°18'0 0.0
2015-Jan-27 01:33N 43°33' E 010°18'0 0.0
2015-Jan-27 00:33N 43°33' E 010°18'0 0.0
2015-Jan-26 23:34N 43°33' E 010°18'0 0.0
2015-Jan-26 22:33N 43°33' E 010°18'0 0.0
2015-Jan-26 21:33N 43°33' E 010°18'0 0.0
2015-Jan-26 20:33N 43°33' E 010°18'0 0.0
2015-Jan-26 19:34N 43°33' E 010°18'0 0.0
2015-Jan-26 18:33N 43°33' E 010°18'0 0.0
2015-Jan-26 17:33N 43°33' E 010°18'0 0.0
2015-Jan-26 16:33N 43°33' E 010°18'0 0.0
2015-Jan-26 15:34N 43°33' E 010°18'0 0.0
2015-Jan-26 14:33N 43°33' E 010°18'0 0.0
2015-Jan-26 13:33N 43°33' E 010°18'0 0.0
2015-Jan-26 12:33N 43°33' E 010°18'0 0.0
2015-Jan-26 11:33N 43°33' E 010°18'0 0.0
2015-Jan-26 10:33N 43°33' E 010°18'0 0.0
2015-Jan-26 09:34N 43°33' E 010°18'0 0.0
2015-Jan-26 08:34N 43°33' E 010°18'0 0.0
2015-Jan-26 07:34N 43°33' E 010°18'0 0.0
2015-Jan-26 06:33N 43°33' E 010°18'2 1.8
2015-Jan-26 05:34N 43°32' E 010°16'1414.3
2015-Jan-26 04:34N 43°18' E 010°10'4 0.1
2015-Jan-24 21:25N 43°14' E 010°08'1416.8
2015-Jan-24 20:33N 43°29' E 010°12'7 6.6
2015-Jan-24 19:34N 43°33' E 010°18'0 0.0
2015-Jan-24 18:34N 43°33' E 010°18'0 0.0
2015-Jan-24 17:33N 43°33' E 010°18'0 0.0
2015-Jan-24 16:33N 43°33' E 010°18'0 0.0
2015-Jan-24 15:33N 43°33' E 010°18'0 0.0
2015-Jan-24 14:33N 43°33' E 010°18'0 0.0
2015-Jan-24 13:34N 43°33' E 010°18'0 0.0
2015-Jan-24 12:33N 43°33' E 010°18'0 0.0
2015-Jan-24 11:32N 43°33' E 010°18'0 0.0
2015-Jan-24 10:34N 43°33' E 010°18'0 0.0
2015-Jan-24 09:33N 43°33' E 010°18'0 0.0
2015-Jan-24 08:33N 43°33' E 010°18'0 0.0
2015-Jan-24 07:33N 43°33' E 010°18'0 0.0
2015-Jan-24 06:33N 43°33' E 010°18'3 3.1
2015-Jan-24 05:34N 43°31' E 010°15'1515.3
2015-Jan-24 04:33N 43°17' E 010°07'4 0.1
2015-Jan-22 21:33N 43°13' E 010°08'1616.4
2015-Jan-22 20:33N 43°29' E 010°13'5 5.5
2015-Jan-22 19:33N 43°33' E 010°18'0 0.0
2015-Jan-22 18:33N 43°33' E 010°18'0 0.0
2015-Jan-22 17:33N 43°33' E 010°18'10 9.8
2015-Jan-22 16:33N 43°25' E 010°11'1717.2
2015-Jan-22 15:33N 43°09' E 010°03'2 0.4
2015-Jan-22 10:08N 43°07' E 010°01'1017.3
2015-Jan-22 09:33N 43°16' E 010°06'1716.8
2015-Jan-22 08:33N 43°32' E 010°15'3 2.8
2015-Jan-22 07:34N 43°33' E 010°18'3 2.8
2015-Jan-22 06:33N 43°31' E 010°15'1515.0
2015-Jan-22 05:33N 43°17' E 010°07'1111.4
2015-Jan-22 04:33N 43°07' E 010°01'1511.4
2015-Jan-22 03:14N 42°54' E 009°50'26 0.9
2015-Jan-20 21:34N 43°16' E 010°08'1616.1
2015-Jan-20 20:34N 43°31' E 010°14'3 3.0
2015-Jan-20 19:34N 43°33' E 010°18'0 0.0
2015-Jan-20 18:33N 43°33' E 010°18'0 0.0
2015-Jan-20 17:34N 43°33' E 010°18'6 6.3
2015-Jan-20 16:34N 43°29' E 010°12'1616.2
2015-Jan-20 15:33N 43°17' E 009°56'8 1.1
2015-Jan-20 08:33N 43°18' E 010°06'1615.5
2015-Jan-20 07:31N 43°32' E 010°16'2 1.7
2015-Jan-20 06:33N 43°33' E 010°18'0 0.0
2015-Jan-20 05:33N 43°33' E 010°18'0 0.0
2015-Jan-20 04:33N 43°33' E 010°18'0 0.0
2015-Jan-20 03:33N 43°33' E 010°18'0 0.0
2015-Jan-20 02:33N 43°33' E 010°18'0 0.0
2015-Jan-20 01:33N 43°33' E 010°18'0 0.0
2015-Jan-20 00:33N 43°33' E 010°18'0 0.0
2015-Jan-19 23:34N 43°33' E 010°18'0 0.0
2015-Jan-19 22:34N 43°33' E 010°18'0 0.0
2015-Jan-19 21:34N 43°33' E 010°18'0 0.0
2015-Jan-19 20:34N 43°33' E 010°18'0 0.0
2015-Jan-19 19:34N 43°33' E 010°18'0 0.0
2015-Jan-19 18:33N 43°33' E 010°18'0 0.0
2015-Jan-19 17:34N 43°33' E 010°18'0 0.0
2015-Jan-19 16:33N 43°33' E 010°18'0 0.0
2015-Jan-19 15:34N 43°33' E 010°18'0 0.0
2015-Jan-19 14:33N 43°33' E 010°18'0 0.0
2015-Jan-19 13:34N 43°33' E 010°18'0 0.0
2015-Jan-19 12:33N 43°33' E 010°18'0 0.0
2015-Jan-19 11:34N 43°33' E 010°18'0 0.0
2015-Jan-19 10:33N 43°33' E 010°18'0 0.0
2015-Jan-19 09:34N 43°33' E 010°18'0 0.0
2015-Jan-19 08:34N 43°33' E 010°18'0 0.0
2015-Jan-19 07:33N 43°33' E 010°18'0 0.0
2015-Jan-19 06:33N 43°33' E 010°18'3 3.4
2015-Jan-19 05:34N 43°31' E 010°15'1413.9
2015-Jan-19 04:33N 43°17' E 010°09'10 0.3
2015-Jan-17 22:33N 43°09' E 010°02'1313.2
2015-Jan-17 21:33N 43°21' E 010°08'1211.4
2015-Jan-17 20:29N 43°32' E 010°16'2 2.0
2015-Jan-17 19:33N 43°33' E 010°18'0 0.0
2015-Jan-17 18:33N 43°33' E 010°18'0 0.0
2015-Jan-17 17:33N 43°33' E 010°18'0 0.0
2015-Jan-17 16:33N 43°33' E 010°18'0 0.0
2015-Jan-17 15:33N 43°33' E 010°18'0 0.0
2015-Jan-17 14:33N 43°33' E 010°18'0 0.0
2015-Jan-17 13:33N 43°33' E 010°18'0 0.0
2015-Jan-17 12:33N 43°33' E 010°18'0 0.0
2015-Jan-17 11:33N 43°33' E 010°18'0 0.0
2015-Jan-17 10:33N 43°33' E 010°18'0 0.0
2015-Jan-17 09:33N 43°33' E 010°18'0 0.0
2015-Jan-17 08:33N 43°33' E 010°18'0 0.0
2015-Jan-17 07:33N 43°33' E 010°18'0 0.0
2015-Jan-17 06:33N 43°33' E 010°18'3 3.3
2015-Jan-17 05:33N 43°31' E 010°15'  
Track history (hours):
 
Tides and Currents Weather Stations Pressure Air Temp Water Temp Dewpoint Dewpoint Depression Visibility Wind Speed Wind Dir Waves Ship Positions

Sardinia Vera

Last reported at 2015-Jan-27 05:33 UTC. Time now 2015-Jan-27 05:49 UTC.
Position N 43°33' E 010°18'.

; draft 5.2 m.

Type: Passenger vessel. MMSI: 247392000.

Date/timePositionNaut miles runAvg speedWind from/ knotsBaromVisibWave heightAir tempDewpointWater temp
2015-Jan-27 05:33N 43°33' E 010°18'0 0.0
2015-Jan-27 04:34N 43°33' E 010°18'0 0.0
2015-Jan-27 03:34N 43°33' E 010°18'0 0.0
2015-Jan-27 02:34N 43°33' E 010°18'0 0.0
2015-Jan-27 01:33N 43°33' E 010°18'0 0.0
2015-Jan-27 00:33N 43°33' E 010°18'0 0.0
2015-Jan-26 23:34N 43°33' E 010°18'0 0.0
2015-Jan-26 22:33N 43°33' E 010°18'0 0.0
2015-Jan-26 21:33N 43°33' E 010°18'0 0.0
2015-Jan-26 20:33N 43°33' E 010°18'0 0.0
2015-Jan-26 19:34N 43°33' E 010°18'0 0.0
2015-Jan-26 18:33N 43°33' E 010°18'0 0.0
2015-Jan-26 17:33N 43°33' E 010°18'0 0.0
2015-Jan-26 16:33N 43°33' E 010°18'0 0.0
2015-Jan-26 15:34N 43°33' E 010°18'0 0.0
2015-Jan-26 14:33N 43°33' E 010°18'0 0.0
2015-Jan-26 13:33N 43°33' E 010°18'0 0.0
2015-Jan-26 12:33N 43°33' E 010°18'0 0.0
2015-Jan-26 11:33N 43°33' E 010°18'0 0.0
2015-Jan-26 10:33N 43°33' E 010°18'0 0.0
2015-Jan-26 09:34N 43°33' E 010°18'0 0.0
2015-Jan-26 08:34N 43°33' E 010°18'0 0.0
2015-Jan-26 07:34N 43°33' E 010°18'0 0.0
2015-Jan-26 06:33N 43°33' E 010°18'2 1.8
2015-Jan-26 05:34N 43°32' E 010°16'1414.3
2015-Jan-26 04:34N 43°18' E 010°10'4 0.1
2015-Jan-24 21:25N 43°14' E 010°08'1416.8
2015-Jan-24 20:33N 43°29' E 010°12'7 6.6
2015-Jan-24 19:34N 43°33' E 010°18'0 0.0
2015-Jan-24 18:34N 43°33' E 010°18'0 0.0
2015-Jan-24 17:33N 43°33' E 010°18'0 0.0
2015-Jan-24 16:33N 43°33' E 010°18'0 0.0
2015-Jan-24 15:33N 43°33' E 010°18'0 0.0
2015-Jan-24 14:33N 43°33' E 010°18'0 0.0
2015-Jan-24 13:34N 43°33' E 010°18'0 0.0
2015-Jan-24 12:33N 43°33' E 010°18'0 0.0
2015-Jan-24 11:32N 43°33' E 010°18'0 0.0
2015-Jan-24 10:34N 43°33' E 010°18'0 0.0
2015-Jan-24 09:33N 43°33' E 010°18'0 0.0
2015-Jan-24 08:33N 43°33' E 010°18'0 0.0
2015-Jan-24 07:33N 43°33' E 010°18'0 0.0
2015-Jan-24 06:33N 43°33' E 010°18'3 3.1
2015-Jan-24 05:34N 43°31' E 010°15'1515.3
2015-Jan-24 04:33N 43°17' E 010°07'4 0.1
2015-Jan-22 21:33N 43°13' E 010°08'1616.4
2015-Jan-22 20:33N 43°29' E 010°13'5 5.5
2015-Jan-22 19:33N 43°33' E 010°18'0 0.0
2015-Jan-22 18:33N 43°33' E 010°18'0 0.0
2015-Jan-22 17:33N 43°33' E 010°18'10 9.8
2015-Jan-22 16:33N 43°25' E 010°11'1717.2
2015-Jan-22 15:33N 43°09' E 010°03'2 0.4
2015-Jan-22 10:08N 43°07' E 010°01'1017.3
2015-Jan-22 09:33N 43°16' E 010°06'1716.8
2015-Jan-22 08:33N 43°32' E 010°15'3 2.8
2015-Jan-22 07:34N 43°33' E 010°18'3 2.8
2015-Jan-22 06:33N 43°31' E 010°15'1515.0
2015-Jan-22 05:33N 43°17' E 010°07'1111.4
2015-Jan-22 04:33N 43°07' E 010°01'1511.4
2015-Jan-22 03:14N 42°54' E 009°50'26 0.9
2015-Jan-20 21:34N 43°16' E 010°08'1616.1
2015-Jan-20 20:34N 43°31' E 010°14'3 3.0
2015-Jan-20 19:34N 43°33' E 010°18'0 0.0
2015-Jan-20 18:33N 43°33' E 010°18'0 0.0
2015-Jan-20 17:34N 43°33' E 010°18'6 6.3
2015-Jan-20 16:34N 43°29' E 010°12'1616.2
2015-Jan-20 15:33N 43°17' E 009°56'8 1.1
2015-Jan-20 08:33N 43°18' E 010°06'1615.5
2015-Jan-20 07:31N 43°32' E 010°16'2 1.7
2015-Jan-20 06:33N 43°33' E 010°18'0 0.0
2015-Jan-20 05:33N 43°33' E 010°18'0 0.0
2015-Jan-20 04:33N 43°33' E 010°18'0 0.0
2015-Jan-20 03:33N 43°33' E 010°18'0 0.0
2015-Jan-20 02:33N 43°33' E 010°18'0 0.0
2015-Jan-20 01:33N 43°33' E 010°18'0 0.0
2015-Jan-20 00:33N 43°33' E 010°18'0 0.0
2015-Jan-19 23:34N 43°33' E 010°18'0 0.0
2015-Jan-19 22:34N 43°33' E 010°18'0 0.0
2015-Jan-19 21:34N 43°33' E 010°18'0 0.0
2015-Jan-19 20:34N 43°33' E 010°18'0 0.0
2015-Jan-19 19:34N 43°33' E 010°18'0 0.0
2015-Jan-19 18:33N 43°33' E 010°18'0 0.0
2015-Jan-19 17:34N 43°33' E 010°18'0 0.0
2015-Jan-19 16:33N 43°33' E 010°18'0 0.0
2015-Jan-19 15:34N 43°33' E 010°18'0 0.0
2015-Jan-19 14:33N 43°33' E 010°18'0 0.0
2015-Jan-19 13:34N 43°33' E 010°18'0 0.0
2015-Jan-19 12:33N 43°33' E 010°18'0 0.0
2015-Jan-19 11:34N 43°33' E 010°18'0 0.0
2015-Jan-19 10:33N 43°33' E 010°18'0 0.0
2015-Jan-19 09:34N 43°33' E 010°18'0 0.0
2015-Jan-19 08:34N 43°33' E 010°18'0 0.0
2015-Jan-19 07:33N 43°33' E 010°18'0 0.0
2015-Jan-19 06:33N 43°33' E 010°18'3 3.4
2015-Jan-19 05:34N 43°31' E 010°15'1413.9
2015-Jan-19 04:33N 43°17' E 010°09'10 0.3
2015-Jan-17 22:33N 43°09' E 010°02'1313.2
2015-Jan-17 21:33N 43°21' E 010°08'1211.4
2015-Jan-17 20:29N 43°32' E 010°16'2 2.0
2015-Jan-17 19:33N 43°33' E 010°18'0 0.0
2015-Jan-17 18:33N 43°33' E 010°18'0 0.0
2015-Jan-17 17:33N 43°33' E 010°18'0 0.0
2015-Jan-17 16:33N 43°33' E 010°18'0 0.0
2015-Jan-17 15:33N 43°33' E 010°18'0 0.0
2015-Jan-17 14:33N 43°33' E 010°18'0 0.0
2015-Jan-17 13:33N 43°33' E 010°18'0 0.0
2015-Jan-17 12:33N 43°33' E 010°18'0 0.0
2015-Jan-17 11:33N 43°33' E 010°18'0 0.0
2015-Jan-17 10:33N 43°33' E 010°18'0 0.0
2015-Jan-17 09:33N 43°33' E 010°18'0 0.0
2015-Jan-17 08:33N 43°33' E 010°18'0 0.0
2015-Jan-17 07:33N 43°33' E 010°18'0 0.0
2015-Jan-17 06:33N 43°33' E 010°18'3 3.3
2015-Jan-17 05:33N 43°31' E 010°15'  

Dump ship's entire track history